createdAt,value
2022-10-28T00:01:23.938Z,17.60
2022-10-28T00:03:54.148Z,16.52
2022-10-28T00:06:24.948Z,15.40
2022-10-28T00:08:53.152Z,14.80
2022-10-28T00:11:24.327Z,15.57
2022-10-28T00:13:57.742Z,16.47
2022-10-28T00:16:28.419Z,17.29
2022-10-28T00:18:59.157Z,17.49
2022-10-28T00:21:29.453Z,16.46
2022-10-28T00:23:57.818Z,15.25
2022-10-28T00:26:28.575Z,14.74
2022-10-28T00:28:59.633Z,15.67
2022-10-28T00:31:29.957Z,16.66
2022-10-28T00:34:02.669Z,17.18
2022-10-28T00:36:36.095Z,17.49
2022-10-28T00:39:11.272Z,17.62
2022-10-28T00:41:41.387Z,16.57
2022-10-28T00:44:46.682Z,15.41
2022-10-28T00:47:20.446Z,15.18
2022-10-28T00:49:50.990Z,16.44
2022-10-28T00:52:24.231Z,17.19
2022-10-28T00:54:53.527Z,17.57
2022-10-28T00:57:25.098Z,17.55
2022-10-28T00:59:54.407Z,16.39
2022-10-28T01:02:22.344Z,15.19
2022-10-28T01:04:50.458Z,14.54
2022-10-28T01:07:18.863Z,15.38
2022-10-28T01:09:46.955Z,16.24
2022-10-28T01:12:33.190Z,16.84
2022-10-28T01:15:13.356Z,17.20
2022-10-28T01:18:26.054Z,17.57
2022-10-28T01:21:09.022Z,16.81
2022-10-28T01:23:58.246Z,15.51
2022-10-28T01:26:45.030Z,14.89
2022-10-28T01:29:18.851Z,15.78
2022-10-28T01:32:23.648Z,16.38
2022-10-28T01:38:14.110Z,16.99
2022-10-28T01:41:09.689Z,17.08
2022-10-28T01:44:01.177Z,17.14
2022-10-28T01:46:38.039Z,16.43
2022-10-28T01:49:11.530Z,15.33
2022-10-28T01:51:46.980Z,15.17
2022-10-28T01:54:19.233Z,16.49
2022-10-28T01:56:48.955Z,17.29
2022-10-28T01:59:22.218Z,17.41
2022-10-28T02:01:50.001Z,16.42
2022-10-28T02:04:17.744Z,15.30
2022-10-28T02:06:51.190Z,14.77
2022-10-28T02:10:05.358Z,15.76
2022-10-28T02:12:36.987Z,16.86
2022-10-28T02:15:37.071Z,17.22
2022-10-28T02:18:20.124Z,17.62
2022-10-28T02:21:05.863Z,17.33
2022-10-28T02:23:39.654Z,16.01
2022-10-28T02:26:07.294Z,14.96
2022-10-28T02:28:53.559Z,14.54
2022-10-28T02:31:33.640Z,15.81
2022-10-28T02:34:09.061Z,17.06
2022-10-28T02:36:40.871Z,17.81
2022-10-28T02:39:08.864Z,17.66
2022-10-28T02:41:57.441Z,16.43
2022-10-28T02:44:30.630Z,15.17
2022-10-28T02:47:01.961Z,14.86
2022-10-28T02:49:33.601Z,16.15
2022-10-28T02:52:06.193Z,16.88
2022-10-28T02:54:45.724Z,17.22
2022-10-28T02:57:20.752Z,17.47
2022-10-28T02:59:57.349Z,17.55
2022-10-28T03:02:26.001Z,16.41
2022-10-28T03:04:53.764Z,15.23
2022-10-28T03:07:21.583Z,14.84
2022-10-28T03:09:49.334Z,16.01
2022-10-28T03:12:17.069Z,16.89
2022-10-28T03:14:44.802Z,17.26
2022-10-28T03:17:12.518Z,17.34
2022-10-28T03:19:40.230Z,17.30
2022-10-28T03:22:08.077Z,17.34
2022-10-28T03:24:35.802Z,17.40
2022-10-28T03:27:03.625Z,17.64
2022-10-28T03:29:31.436Z,17.43
2022-10-28T03:31:59.104Z,16.33
2022-10-28T03:34:26.857Z,15.23
2022-10-28T03:36:54.536Z,15.36
2022-10-28T03:39:22.246Z,16.46
2022-10-28T03:41:49.973Z,16.99
2022-10-28T03:44:17.713Z,17.19
2022-10-28T03:46:45.487Z,17.34
2022-10-28T03:49:13.193Z,17.38
2022-10-28T03:51:40.853Z,17.40
2022-10-28T03:54:08.574Z,17.42
2022-10-28T03:56:36.347Z,17.40
2022-10-28T03:59:04.021Z,17.46
2022-10-28T04:01:31.790Z,17.31
2022-10-28T04:03:59.568Z,16.36
2022-10-28T04:06:27.261Z,15.35
2022-10-28T04:08:54.959Z,14.86
2022-10-28T04:11:22.666Z,15.68
2022-10-28T04:13:50.414Z,16.46
2022-10-28T04:16:18.120Z,16.74
2022-10-28T04:18:45.860Z,16.84
2022-10-28T04:21:13.712Z,16.92
2022-10-28T04:23:41.410Z,16.99
2022-10-28T04:26:09.120Z,17.08
2022-10-28T04:28:36.771Z,17.38
2022-10-28T04:31:04.607Z,17.48
2022-10-28T04:33:32.297Z,16.64
2022-10-28T04:35:59.962Z,15.53
2022-10-28T04:38:27.687Z,14.98
2022-10-28T04:40:55.431Z,15.70
2022-10-28T04:43:23.125Z,16.27
2022-10-28T04:45:50.794Z,16.46
2022-10-28T04:48:18.579Z,16.73
2022-10-28T04:50:46.624Z,17.58
2022-10-28T04:53:14.312Z,17.66
2022-10-28T04:55:42.010Z,16.54
2022-10-28T04:58:09.812Z,15.42
2022-10-28T05:00:37.581Z,14.90
2022-10-28T05:03:05.353Z,15.79
2022-10-28T05:05:33.391Z,16.47
2022-10-28T05:08:01.291Z,16.77
2022-10-28T05:10:30.474Z,17.17
2022-10-28T05:12:58.210Z,17.91
2022-10-28T05:15:26.730Z,17.43
2022-10-28T05:17:54.976Z,16.20
2022-10-28T05:20:23.314Z,15.69
2022-10-28T05:22:54.046Z,16.34
2022-10-28T05:25:22.930Z,16.82
2022-10-28T05:27:50.925Z,17.32
2022-10-28T05:30:19.226Z,17.79
2022-10-28T05:32:49.206Z,17.18
2022-10-28T05:35:19.281Z,16.05
2022-10-28T05:37:47.002Z,15.15
2022-10-28T05:40:14.905Z,14.87
2022-10-28T05:42:43.505Z,16.16
2022-10-28T05:45:12.497Z,17.39
2022-10-28T05:47:47.864Z,17.56
2022-10-28T05:50:18.303Z,16.44
2022-10-28T05:52:51.250Z,15.41
2022-10-28T05:55:20.667Z,14.96
2022-10-28T05:57:49.554Z,16.04
2022-10-28T06:00:22.624Z,17.27
2022-10-28T06:02:50.813Z,17.75
2022-10-28T06:05:19.007Z,16.89
2022-10-28T06:07:46.729Z,15.93
2022-10-28T06:10:14.461Z,15.77
2022-10-28T06:12:41.247Z,17.16
2022-10-28T06:15:09.098Z,18.20
2022-10-28T06:17:36.858Z,18.24
2022-10-28T06:20:05.373Z,17.37
2022-10-28T06:22:33.014Z,16.62
2022-10-28T06:25:00.669Z,16.28
2022-10-28T06:27:30.496Z,17.19
2022-10-28T06:29:58.108Z,18.54
2022-10-28T06:32:25.900Z,19.02
2022-10-28T06:34:53.827Z,18.20
2022-10-28T06:37:21.540Z,17.42
2022-10-28T06:39:51.473Z,16.87
2022-10-28T06:42:19.433Z,16.91
2022-10-28T06:44:48.108Z,18.44
2022-10-28T06:47:17.316Z,19.39
2022-10-28T06:49:45.054Z,19.11
2022-10-28T06:52:12.743Z,18.17
2022-10-28T06:54:40.403Z,17.41
2022-10-28T06:57:08.106Z,16.86
2022-10-28T06:59:36.286Z,16.78
2022-10-28T07:02:06.692Z,18.25
2022-10-28T07:04:34.750Z,19.78
2022-10-28T07:07:02.448Z,19.81
2022-10-28T07:09:30.171Z,18.83
2022-10-28T07:12:02.243Z,18.03
2022-10-28T07:14:34.846Z,17.39
2022-10-28T07:17:02.695Z,17.23
2022-10-28T07:19:30.639Z,18.43
2022-10-28T07:21:58.366Z,19.75
2022-10-28T07:26:59.111Z,19.33
2022-10-28T07:29:26.782Z,18.58
2022-10-28T07:31:55.757Z,18.10
2022-10-28T07:34:26.922Z,18.11
2022-10-28T07:36:56.714Z,19.11
2022-10-28T07:39:24.707Z,19.83
2022-10-28T07:41:52.439Z,20.31
2022-10-28T07:44:20.169Z,19.85
2022-10-28T07:46:47.867Z,19.04
2022-10-28T07:49:15.620Z,18.60
2022-10-28T07:51:43.338Z,19.52
2022-10-28T07:54:11.048Z,20.53
2022-10-28T07:56:38.815Z,20.40
2022-10-28T07:59:06.659Z,19.53
2022-10-28T08:01:35.126Z,18.82
2022-10-28T08:04:02.851Z,18.68
2022-10-28T08:06:30.788Z,20.09
2022-10-28T08:08:58.484Z,21.00
2022-10-28T08:11:26.243Z,20.52
2022-10-28T08:13:55.349Z,19.81
2022-10-28T08:16:23.180Z,19.22
2022-10-28T08:18:53.193Z,19.43
2022-10-28T08:21:20.888Z,20.71
2022-10-28T08:23:48.598Z,21.41
2022-10-28T08:26:16.562Z,21.63
2022-10-28T08:28:44.256Z,20.97
2022-10-28T08:31:15.391Z,20.22
2022-10-28T08:33:45.470Z,19.59
2022-10-28T08:36:15.743Z,19.50
2022-10-28T08:38:45.836Z,20.56
2022-10-28T08:41:32.816Z,21.40
2022-10-28T08:44:09.606Z,21.16
2022-10-28T08:46:47.049Z,20.31
2022-10-28T08:49:18.692Z,19.58
2022-10-28T08:52:21.659Z,19.24
2022-10-28T08:55:12.739Z,20.27
2022-10-28T08:57:52.355Z,21.07
2022-10-28T09:00:26.773Z,20.42
2022-10-28T09:03:11.178Z,19.73
2022-10-28T09:05:50.138Z,19.62
2022-10-28T09:08:22.984Z,20.81
2022-10-28T09:11:33.175Z,21.21
2022-10-28T09:14:22.634Z,20.53
2022-10-28T09:17:16.553Z,19.93
2022-10-28T09:20:04.561Z,19.60
2022-10-28T09:22:46.165Z,20.10
2022-10-28T09:25:38.057Z,21.56
2022-10-28T09:28:11.952Z,21.71
2022-10-28T09:30:45.427Z,21.05
2022-10-28T09:33:25.360Z,20.52
2022-10-28T09:35:54.384Z,20.15
2022-10-28T09:38:31.876Z,20.12
2022-10-28T09:41:24.144Z,21.01
2022-10-28T09:43:59.819Z,21.18
2022-10-28T09:46:34.623Z,20.58
2022-10-28T09:49:34.664Z,20.04
2022-10-28T09:52:09.014Z,19.59
2022-10-28T09:54:49.113Z,19.57
2022-10-28T09:57:17.644Z,20.57
2022-10-28T09:59:46.127Z,21.35
2022-10-28T10:02:32.419Z,20.90
2022-10-28T10:05:02.390Z,20.26
2022-10-28T10:07:38.960Z,19.87
2022-10-28T10:10:17.133Z,19.50
2022-10-28T10:12:47.442Z,19.27
2022-10-28T10:15:27.551Z,19.99
2022-10-28T10:17:57.513Z,21.30
2022-10-28T10:20:25.162Z,21.47
2022-10-28T10:22:53.164Z,20.79
2022-10-28T10:25:21.129Z,20.33
2022-10-28T10:28:02.458Z,20.03
2022-10-28T10:30:45.291Z,19.83
2022-10-28T10:33:20.400Z,19.73
2022-10-28T10:36:00.808Z,20.33
2022-10-28T10:38:29.791Z,21.49
2022-10-28T10:40:58.091Z,21.25
2022-10-28T10:43:34.559Z,20.79
2022-10-28T10:46:12.916Z,20.47
2022-10-28T10:48:40.746Z,20.28
2022-10-28T10:51:12.441Z,20.21
2022-10-28T10:53:40.363Z,20.16
2022-10-28T10:56:11.151Z,20.08
2022-10-28T10:58:47.277Z,19.96
2022-10-28T11:01:21.349Z,19.85
2022-10-28T11:03:54.429Z,20.03
2022-10-28T11:06:27.475Z,21.42
2022-10-28T11:09:04.209Z,21.85
2022-10-28T11:11:38.104Z,21.34
2022-10-28T11:14:08.953Z,20.84
2022-10-28T11:16:52.150Z,20.50
2022-10-28T11:19:28.684Z,20.27
2022-10-28T11:22:39.344Z,20.10
2022-10-28T11:25:07.005Z,19.98
2022-10-28T11:27:51.781Z,19.99
2022-10-28T11:30:35.066Z,20.89
2022-10-28T11:33:29.438Z,22.00
2022-10-28T11:36:10.431Z,21.68
2022-10-28T11:38:45.795Z,21.26
2022-10-28T11:41:20.505Z,20.95
2022-10-28T11:44:00.855Z,20.77
2022-10-28T11:46:37.892Z,20.65
2022-10-28T11:49:30.067Z,20.56
2022-10-28T11:52:00.797Z,20.51
2022-10-28T11:54:36.149Z,20.46
2022-10-28T11:57:15.907Z,20.41
2022-10-28T12:00:02.158Z,20.34
2022-10-28T12:02:35.948Z,20.22
2022-10-28T12:05:03.841Z,20.06
2022-10-28T12:07:34.597Z,19.95
2022-10-28T12:10:16.581Z,19.88
2022-10-28T12:12:56.493Z,20.00
2022-10-28T12:15:49.437Z,21.54
2022-10-28T12:18:28.058Z,22.63
2022-10-28T12:21:25.422Z,22.02
2022-10-28T12:23:55.979Z,21.34
2022-10-28T12:26:38.323Z,20.89
2022-10-28T12:29:16.315Z,20.54
2022-10-28T12:31:50.273Z,20.29
2022-10-28T12:34:28.451Z,20.09
2022-10-28T12:37:08.675Z,19.88
2022-10-28T12:39:56.380Z,19.70
2022-10-28T12:42:30.748Z,19.49
2022-10-28T12:45:01.935Z,19.27
2022-10-28T12:47:55.799Z,19.04
2022-10-28T12:50:48.617Z,19.43
2022-10-28T12:53:36.735Z,21.15
2022-10-28T12:56:12.355Z,21.09
2022-10-28T13:01:35.256Z,19.72
2022-10-28T13:04:04.035Z,19.33
2022-10-28T13:06:45.096Z,19.04
2022-10-28T13:09:38.057Z,19.24
2022-10-28T13:12:26.525Z,21.02
2022-10-28T13:15:19.553Z,21.34
2022-10-28T13:18:18.284Z,20.65
2022-10-28T13:21:14.756Z,20.05
2022-10-28T13:24:08.727Z,19.70
2022-10-28T13:26:41.247Z,19.45
2022-10-28T13:29:21.590Z,19.29
2022-10-28T13:31:50.269Z,19.58
2022-10-28T13:34:24.281Z,21.21
2022-10-28T13:36:58.439Z,22.42
2022-10-28T13:39:42.851Z,21.97
2022-10-28T13:42:13.580Z,21.25
2022-10-28T13:44:50.658Z,20.78
2022-10-28T13:47:25.912Z,20.45
2022-10-28T13:50:05.915Z,20.18
2022-10-28T13:52:38.947Z,19.99
2022-10-28T13:55:25.401Z,19.82
2022-10-28T13:58:20.837Z,19.64
2022-10-28T14:00:52.104Z,19.46
2022-10-28T14:03:26.571Z,19.34
2022-10-28T14:05:57.497Z,19.23
2022-10-28T14:08:27.629Z,19.13
2022-10-28T14:11:03.219Z,19.02
2022-10-28T14:13:40.581Z,18.90
2022-10-28T14:16:24.945Z,18.76
2022-10-28T14:19:00.320Z,18.62
2022-10-28T14:22:02.518Z,18.51
2022-10-28T14:24:44.080Z,18.37
2022-10-28T14:27:42.530Z,18.78
2022-10-28T14:30:16.625Z,20.98
2022-10-28T14:32:50.468Z,21.92
2022-10-28T14:35:28.980Z,21.18
2022-10-28T14:38:28.092Z,20.26
2022-10-28T14:41:35.277Z,19.48
2022-10-28T14:44:15.373Z,18.95
2022-10-28T14:47:20.952Z,18.60
2022-10-28T14:50:15.456Z,18.28
2022-10-28T14:52:44.864Z,18.66
2022-10-28T14:55:32.916Z,20.44
2022-10-28T14:58:21.613Z,21.05
2022-10-28T15:01:18.905Z,20.18
2022-10-28T15:03:51.031Z,19.31
2022-10-28T15:06:31.421Z,18.75
2022-10-28T15:09:05.899Z,18.29
2022-10-28T15:11:34.257Z,17.88
2022-10-28T15:14:15.247Z,17.94
2022-10-28T15:16:48.965Z,19.68
2022-10-28T15:19:21.107Z,20.63
2022-10-28T15:22:06.434Z,19.87
2022-10-28T15:24:34.545Z,18.84
2022-10-28T15:27:02.566Z,18.12
2022-10-28T15:29:31.384Z,17.57
2022-10-28T15:32:21.213Z,17.52
2022-10-28T15:34:49.576Z,19.23
2022-10-28T15:37:23.004Z,20.13
2022-10-28T15:39:53.419Z,19.42
2022-10-28T15:42:31.104Z,18.43
2022-10-28T15:44:59.272Z,17.66
2022-10-28T15:47:36.471Z,17.17
2022-10-28T15:50:16.383Z,18.17
2022-10-28T15:52:45.433Z,19.79
2022-10-28T15:55:19.170Z,20.28
2022-10-28T15:57:58.899Z,19.36
2022-10-28T16:00:32.195Z,18.23
2022-10-28T16:03:01.869Z,17.44
2022-10-28T16:05:33.071Z,17.27
2022-10-28T16:08:08.334Z,18.71
2022-10-28T16:10:43.781Z,19.90
2022-10-28T16:13:24.491Z,19.76
2022-10-28T16:15:57.678Z,18.53
2022-10-28T16:18:27.545Z,17.52
2022-10-28T16:20:57.383Z,17.24
2022-10-28T16:23:30.800Z,18.58
2022-10-28T16:25:58.514Z,19.42
2022-10-28T16:28:28.267Z,18.58
2022-10-28T16:30:59.340Z,17.54
2022-10-28T16:33:33.389Z,16.77
2022-10-28T16:36:02.692Z,16.67
2022-10-28T16:38:31.494Z,18.15
2022-10-28T16:41:01.260Z,19.19
2022-10-28T16:43:30.871Z,18.85
2022-10-28T16:46:00.601Z,17.78
2022-10-28T16:48:30.605Z,16.90
2022-10-28T16:51:10.999Z,16.97
2022-10-28T16:53:39.063Z,18.47
2022-10-28T16:56:12.554Z,19.39
2022-10-28T16:58:42.586Z,18.84
2022-10-28T17:01:11.863Z,17.66
2022-10-28T17:03:39.724Z,16.81
2022-10-28T17:06:08.964Z,16.71
2022-10-28T17:09:01.240Z,18.09
2022-10-28T17:11:24.489Z,19.25
2022-10-28T17:13:52.272Z,19.23
2022-10-28T17:16:20.042Z,18.11
2022-10-28T17:18:49.745Z,17.07
2022-10-28T17:21:17.548Z,16.33
2022-10-28T17:23:45.587Z,16.47
2022-10-28T17:26:13.290Z,17.95
2022-10-28T17:28:40.978Z,19.04
2022-10-28T17:31:09.281Z,19.26
2022-10-28T17:33:37.092Z,18.16
2022-10-28T17:36:08.008Z,17.09
2022-10-28T17:38:36.452Z,16.28
2022-10-28T17:41:04.243Z,16.42
2022-10-28T17:43:32.101Z,17.87
2022-10-28T17:46:27.572Z,18.75
2022-10-28T17:48:55.465Z,17.81
2022-10-28T17:51:25.304Z,16.72
2022-10-28T17:53:55.115Z,16.36
2022-10-28T17:56:23.189Z,17.60
2022-10-28T17:58:54.346Z,18.50
2022-10-28T18:01:22.216Z,18.16
2022-10-28T18:03:50.822Z,17.04
2022-10-28T18:06:18.562Z,16.21
2022-10-28T18:08:46.281Z,17.06
2022-10-28T18:11:16.090Z,18.03
2022-10-28T18:13:45.727Z,18.36
2022-10-28T18:16:20.014Z,17.43
2022-10-28T18:18:49.161Z,16.64
2022-10-28T18:21:17.757Z,17.67
2022-10-28T18:23:50.639Z,18.45
2022-10-28T18:26:18.802Z,18.18
2022-10-28T18:28:47.178Z,17.03
2022-10-28T18:31:17.648Z,16.23
2022-10-28T18:33:47.988Z,17.20
2022-10-28T18:36:18.886Z,17.87
2022-10-28T18:38:47.200Z,18.27
2022-10-28T18:41:19.588Z,17.81
2022-10-28T18:43:48.092Z,16.65
2022-10-28T18:46:16.065Z,16.05
2022-10-28T18:48:43.733Z,17.13
2022-10-28T18:51:12.929Z,18.00
2022-10-28T18:53:43.255Z,18.09
2022-10-28T18:56:19.316Z,18.16
2022-10-28T18:58:49.429Z,18.20
2022-10-28T19:01:28.629Z,18.12
2022-10-28T19:03:58.918Z,17.21
2022-10-28T19:06:32.715Z,16.10
2022-10-28T19:09:03.761Z,16.26
2022-10-28T19:11:32.945Z,17.40
2022-10-28T19:14:03.773Z,18.16
2022-10-28T19:16:34.232Z,18.17
2022-10-28T19:19:04.741Z,17.11
2022-10-28T19:21:33.267Z,16.30
2022-10-28T19:24:01.319Z,17.19
2022-10-28T19:26:32.049Z,17.90
2022-10-28T19:28:59.767Z,18.14
2022-10-28T19:31:28.113Z,17.27
2022-10-28T19:33:55.793Z,16.07
2022-10-28T19:36:30.469Z,15.53
2022-10-28T19:38:58.930Z,16.76
2022-10-28T19:41:29.258Z,17.92
2022-10-28T19:43:59.212Z,18.11
2022-10-28T19:46:29.091Z,17.02
2022-10-28T19:48:59.194Z,15.99
2022-10-28T19:51:29.791Z,16.43
2022-10-28T19:53:59.838Z,17.61
2022-10-28T19:56:29.243Z,18.20
2022-10-28T19:58:59.513Z,17.49
2022-10-28T20:01:30.555Z,16.20
2022-10-28T20:03:58.926Z,15.67
2022-10-28T20:06:30.795Z,16.85
2022-10-28T20:08:58.474Z,17.89
2022-10-28T20:11:28.447Z,18.13
2022-10-28T20:13:58.774Z,17.00
2022-10-28T20:16:27.436Z,15.79
2022-10-28T20:18:55.533Z,15.39
2022-10-28T20:21:25.853Z,16.51
2022-10-28T20:23:54.958Z,17.36
2022-10-28T20:26:28.990Z,17.80
2022-10-28T20:28:57.603Z,17.77
2022-10-28T20:31:27.581Z,16.72
2022-10-28T20:34:01.629Z,16.09
2022-10-28T20:36:37.946Z,17.03
2022-10-28T20:39:12.557Z,17.81
2022-10-28T20:41:42.102Z,17.49
2022-10-28T20:44:10.247Z,16.30
2022-10-28T20:46:38.873Z,15.30
2022-10-28T20:49:08.954Z,15.02
2022-10-28T20:51:36.868Z,16.28
2022-10-28T20:54:04.816Z,17.22
2022-10-28T20:56:35.271Z,17.53
2022-10-28T20:59:03.596Z,16.61
2022-10-28T21:01:34.733Z,15.52
2022-10-28T21:04:05.670Z,14.70
2022-10-28T21:06:34.002Z,14.59
2022-10-28T21:09:02.017Z,15.96
2022-10-28T21:11:30.468Z,17.05
2022-10-28T21:14:00.411Z,17.12
2022-10-28T21:16:29.170Z,16.07
2022-10-28T21:18:57.096Z,15.05
2022-10-28T21:21:24.911Z,14.30
2022-10-28T21:23:54.296Z,14.26
2022-10-28T21:26:22.008Z,15.49
2022-10-28T21:28:51.888Z,16.17
2022-10-28T21:31:21.485Z,16.86
2022-10-28T21:36:19.432Z,17.36
2022-10-28T21:38:47.542Z,16.40
2022-10-28T21:41:18.319Z,15.38
2022-10-28T21:43:47.995Z,14.95
2022-10-28T21:46:17.548Z,16.30
2022-10-28T21:48:45.625Z,17.33
2022-10-28T21:51:15.401Z,17.53
2022-10-28T21:53:45.106Z,16.51
2022-10-28T21:56:19.448Z,15.27
2022-10-28T21:58:49.787Z,15.69
2022-10-28T22:01:20.610Z,16.69
2022-10-28T22:03:48.689Z,17.46
2022-10-28T22:06:16.357Z,17.41
2022-10-28T22:08:44.260Z,16.31
2022-10-28T22:11:15.370Z,15.27
2022-10-28T22:13:43.893Z,14.93
2022-10-28T22:16:14.101Z,16.36
2022-10-28T22:18:42.561Z,17.63
2022-10-28T22:21:13.112Z,17.55
2022-10-28T22:23:41.418Z,16.38
2022-10-28T22:26:12.147Z,15.28
2022-10-28T22:28:40.407Z,14.88
2022-10-28T22:31:11.305Z,16.11
2022-10-28T22:33:39.710Z,17.19
2022-10-28T22:36:13.695Z,17.45
2022-10-28T22:38:42.100Z,16.42
2022-10-28T22:41:19.900Z,15.32
2022-10-28T22:43:53.669Z,14.98
2022-10-28T22:46:23.641Z,16.26
2022-10-28T22:48:51.367Z,17.06
2022-10-28T22:51:19.719Z,17.49
2022-10-28T22:53:48.032Z,17.53
2022-10-28T22:56:25.933Z,16.53
2022-10-28T22:58:59.568Z,15.40
2022-10-28T23:01:29.775Z,15.04
2022-10-28T23:03:57.724Z,16.37
2022-10-28T23:06:27.343Z,17.45
2022-10-28T23:08:55.377Z,17.65
2022-10-28T23:11:23.539Z,16.67
2022-10-28T23:13:52.946Z,15.65
2022-10-28T23:16:22.031Z,14.86
2022-10-28T23:18:49.883Z,14.72
2022-10-28T23:21:25.940Z,16.23
2022-10-28T23:23:59.561Z,17.48
2022-10-28T23:26:29.073Z,17.30
2022-10-28T23:28:58.966Z,16.18
2022-10-28T23:31:27.665Z,15.14
2022-10-28T23:33:55.670Z,14.39
2022-10-28T23:36:23.510Z,14.37
2022-10-28T23:38:51.879Z,15.65
2022-10-28T23:41:21.097Z,16.63
2022-10-28T23:43:49.527Z,16.98
2022-10-28T23:46:18.388Z,16.06
2022-10-28T23:48:46.030Z,15.07
2022-10-28T23:51:14.337Z,14.68
2022-10-28T23:53:42.062Z,15.86
2022-10-28T23:56:09.781Z,16.92
2022-10-28T23:58:37.503Z,17.57
